createdAt,value
2023-04-22T00:00:07.799Z,46.25
2023-04-22T00:01:07.823Z,46.73
2023-04-22T00:02:07.853Z,47.05
2023-04-22T00:03:07.888Z,46.41
2023-04-22T00:04:07.962Z,47.37
2023-04-22T00:05:07.888Z,47.53
2023-04-22T00:06:07.787Z,47.05
2023-04-22T00:07:07.766Z,47.37
2023-04-22T00:08:07.757Z,47.37
2023-04-22T00:09:07.740Z,46.89
2023-04-22T00:10:07.742Z,47.53
2023-04-22T00:11:07.756Z,46.89
2023-04-22T00:12:07.729Z,47.21
2023-04-22T00:13:07.712Z,47.05
2023-04-22T00:14:07.730Z,46.89
2023-04-22T00:15:07.702Z,46.57
2023-04-22T00:16:07.800Z,46.73
2023-04-22T00:17:07.683Z,47.05
2023-04-22T00:18:07.705Z,47.53
2023-04-22T00:19:07.675Z,47.05
2023-04-22T00:20:07.679Z,47.21
2023-04-22T00:21:07.679Z,46.89
2023-04-22T00:22:07.671Z,46.89
2023-04-22T00:23:07.634Z,47.21
2023-04-22T00:24:07.678Z,47.21
2023-04-22T00:25:07.632Z,47.21
2023-04-22T00:26:07.659Z,47.37
2023-04-22T00:27:07.615Z,46.73
2023-04-22T00:28:07.605Z,46.73
2023-04-22T00:29:07.645Z,47.05
2023-04-22T00:30:07.594Z,47.70
2023-04-22T00:31:07.681Z,47.37
2023-04-22T00:32:07.585Z,47.05
2023-04-22T00:33:07.606Z,47.37
2023-04-22T00:34:07.566Z,47.86
2023-04-22T00:35:07.550Z,46.73
2023-04-22T00:36:07.581Z,47.21
2023-04-22T00:37:07.536Z,47.37
2023-04-22T00:38:07.538Z,46.89
2023-04-22T00:39:07.527Z,46.41
2023-04-22T00:40:07.542Z,47.05
2023-04-22T00:41:07.548Z,46.73
2023-04-22T00:42:07.508Z,47.86
2023-04-22T00:43:07.507Z,47.70
2023-04-22T00:44:07.501Z,46.73
2023-04-22T00:45:07.487Z,46.89
2023-04-22T00:46:07.503Z,47.21
2023-04-22T00:47:07.558Z,46.89
2023-04-22T00:48:07.533Z,47.05
2023-04-22T00:49:07.483Z,46.41
2023-04-22T00:50:07.464Z,46.41
2023-04-22T00:51:07.490Z,46.89
2023-04-22T00:52:07.449Z,46.57
2023-04-22T00:53:07.434Z,46.57
2023-04-22T00:54:07.432Z,46.89
2023-04-22T00:55:07.450Z,46.25
2023-04-22T00:56:07.460Z,46.25
2023-04-22T00:57:07.416Z,45.92
2023-04-22T00:58:07.405Z,45.92
2023-04-22T00:59:07.401Z,46.08
2023-04-22T01:00:07.418Z,45.12
2023-04-22T01:01:07.445Z,45.92
2023-04-22T01:02:07.442Z,45.44
2023-04-22T01:03:07.551Z,44.96
2023-04-22T01:04:07.511Z,44.96
2023-04-22T01:05:07.357Z,44.96
2023-04-22T01:06:07.387Z,43.51
2023-04-22T01:07:07.370Z,44.15
2023-04-22T01:08:07.675Z,44.47
2023-04-22T01:09:07.358Z,44.96
2023-04-22T01:10:07.360Z,44.96
2023-04-22T01:11:07.417Z,43.99
2023-04-22T01:12:07.322Z,43.51
2023-04-22T01:13:07.303Z,43.99
2023-04-22T01:14:07.301Z,44.96
2023-04-22T01:15:07.363Z,44.47
2023-04-22T01:16:07.342Z,44.96
2023-04-22T01:17:07.305Z,45.28
2023-04-22T01:18:07.305Z,44.96
2023-04-22T01:19:07.274Z,45.60
2023-04-22T01:20:07.270Z,44.63
2023-04-22T01:21:07.386Z,45.28
2023-04-22T01:22:07.243Z,45.12
2023-04-22T01:23:07.242Z,44.47
2023-04-22T01:24:07.234Z,44.96
2023-04-22T01:25:07.236Z,45.60
2023-04-22T01:26:07.251Z,44.96
2023-04-22T01:27:07.208Z,44.96
2023-04-22T01:28:07.222Z,45.28
2023-04-22T01:29:07.204Z,44.96
2023-04-22T01:30:07.189Z,44.96
2023-04-22T01:31:07.208Z,44.96
2023-04-22T01:32:07.228Z,44.79
2023-04-22T01:33:07.214Z,44.63
2023-04-22T01:34:07.173Z,44.63
2023-04-22T01:35:07.174Z,46.25
2023-04-22T01:36:07.217Z,44.96
2023-04-22T01:37:07.219Z,44.79
2023-04-22T01:38:07.283Z,44.63
2023-04-22T01:39:07.234Z,45.44
2023-04-22T01:40:07.168Z,44.96
2023-04-22T01:41:07.153Z,44.96
2023-04-22T01:42:07.108Z,44.96
2023-04-22T01:43:07.131Z,45.28
2023-04-22T01:44:07.220Z,45.44
2023-04-22T01:45:07.171Z,44.96
2023-04-22T01:46:07.312Z,44.79
2023-04-22T01:47:07.081Z,44.96
2023-04-22T01:48:07.137Z,45.12
2023-04-22T01:49:07.065Z,45.12
2023-04-22T01:50:07.062Z,44.63
2023-04-22T01:51:07.078Z,44.79
2023-04-22T01:52:07.053Z,45.12
2023-04-22T01:53:07.040Z,44.79
2023-04-22T01:54:07.028Z,44.63
2023-04-22T01:55:07.025Z,44.79
2023-04-22T01:56:07.089Z,45.12
2023-04-22T01:57:07.012Z,45.28
2023-04-22T01:58:07.010Z,45.28
2023-04-22T01:59:07.006Z,45.44
2023-04-22T02:00:06.987Z,45.12
2023-04-22T02:01:07.041Z,45.76
2023-04-22T02:02:07.027Z,46.08
2023-04-22T02:03:07.118Z,45.44
2023-04-22T02:04:06.968Z,45.60
2023-04-22T02:05:07.029Z,46.57
2023-04-22T02:06:06.979Z,45.28
2023-04-22T02:07:06.936Z,44.79
2023-04-22T02:08:07.728Z,45.28
2023-04-22T02:09:06.915Z,44.96
2023-04-22T02:10:06.909Z,44.63
2023-04-22T02:11:07.953Z,45.12
2023-04-22T02:12:06.908Z,44.31
2023-04-22T02:13:06.911Z,44.15
2023-04-22T02:14:06.897Z,44.79
2023-04-22T02:15:06.891Z,44.79
2023-04-22T02:16:06.928Z,44.79
2023-04-22T02:17:06.865Z,45.60
2023-04-22T02:18:06.859Z,45.44
2023-04-22T02:19:06.855Z,45.28
2023-04-22T02:20:06.898Z,45.28
2023-04-22T02:21:06.867Z,45.12
2023-04-22T02:22:06.831Z,45.28
2023-04-22T02:23:06.829Z,45.28
2023-04-22T02:24:06.818Z,44.96
2023-04-22T02:25:06.820Z,44.47
2023-04-22T02:26:06.830Z,45.44
2023-04-22T02:27:06.800Z,43.83
2023-04-22T02:28:06.801Z,43.99
2023-04-22T02:29:06.784Z,44.31
2023-04-22T02:30:06.784Z,43.83
2023-04-22T02:31:06.834Z,44.31
2023-04-22T02:32:06.777Z,44.79
2023-04-22T02:33:06.815Z,44.79
2023-04-22T02:34:06.762Z,44.63
2023-04-22T02:35:06.752Z,45.12
2023-04-22T02:36:06.761Z,45.60
2023-04-22T02:37:06.728Z,44.79
2023-04-22T02:38:06.732Z,44.96
2023-04-22T02:39:06.763Z,45.12
2023-04-22T02:40:06.714Z,45.44
2023-04-22T02:41:06.725Z,45.28
2023-04-22T02:42:06.697Z,45.92
2023-04-22T02:43:06.687Z,45.12
2023-04-22T02:44:06.695Z,46.08
2023-04-22T02:45:06.679Z,46.41
2023-04-22T02:46:06.709Z,45.92
2023-04-22T02:47:06.825Z,46.25
2023-04-22T02:48:06.694Z,46.57
2023-04-22T02:49:06.645Z,46.41
2023-04-22T02:50:06.647Z,46.41
2023-04-22T02:51:06.656Z,46.57
2023-04-22T02:52:06.647Z,46.57
2023-04-22T02:53:06.626Z,46.89
2023-04-22T02:54:06.629Z,46.73
2023-04-22T02:55:06.605Z,46.57
2023-04-22T02:56:06.615Z,46.41
2023-04-22T02:57:06.600Z,46.25
2023-04-22T02:58:06.618Z,46.57
2023-04-22T02:59:06.574Z,46.73
2023-04-22T03:00:06.590Z,46.57
2023-04-22T03:01:06.667Z,46.57
2023-04-22T03:02:07.043Z,47.05
2023-04-22T03:03:07.749Z,46.89
2023-04-22T03:04:06.704Z,46.89
2023-04-22T03:05:06.561Z,47.05
2023-04-22T03:06:06.565Z,47.21
2023-04-22T03:07:06.546Z,47.05
2023-04-22T03:08:06.533Z,47.05
2023-04-22T03:09:06.532Z,47.53
2023-04-22T03:10:06.498Z,46.41
2023-04-22T03:11:06.527Z,46.89
2023-04-22T03:12:06.496Z,47.21
2023-04-22T03:13:06.498Z,48.02
2023-04-22T03:14:06.483Z,48.02
2023-04-22T03:15:06.476Z,47.53
2023-04-22T03:16:06.518Z,47.37
2023-04-22T03:17:06.472Z,47.21
2023-04-22T03:18:06.471Z,47.53
2023-04-22T03:19:06.461Z,47.53
2023-04-22T03:20:06.444Z,47.21
2023-04-22T03:21:06.433Z,47.21
2023-04-22T03:22:06.457Z,47.21
2023-04-22T03:23:06.422Z,47.05
2023-04-22T03:24:06.410Z,46.89
2023-04-22T03:25:06.415Z,47.53
2023-04-22T03:26:06.390Z,47.53
2023-04-22T03:27:06.428Z,47.53
2023-04-22T03:28:06.387Z,47.53
2023-04-22T03:29:06.392Z,47.86
2023-04-22T03:30:06.367Z,48.34
2023-04-22T03:31:06.364Z,47.37
2023-04-22T03:32:06.386Z,48.34
2023-04-22T03:33:06.409Z,48.18
2023-04-22T03:34:06.340Z,47.70
2023-04-22T03:35:06.340Z,47.21
2023-04-22T03:36:06.333Z,47.86
2023-04-22T03:37:06.348Z,47.86
2023-04-22T03:38:06.316Z,48.02
2023-04-22T03:39:06.311Z,47.37
2023-04-22T03:40:06.299Z,48.02
2023-04-22T03:41:06.297Z,48.18
2023-04-22T03:42:06.311Z,48.02
2023-04-22T03:43:06.278Z,48.82
2023-04-22T03:44:06.278Z,48.50
2023-04-22T03:45:06.267Z,48.02
2023-04-22T03:46:06.287Z,48.18
2023-04-22T03:47:06.276Z,47.53
2023-04-22T03:48:06.276Z,48.02
2023-04-22T03:49:06.232Z,48.02
2023-04-22T03:50:06.228Z,47.05
2023-04-22T03:51:06.239Z,46.89
2023-04-22T03:52:06.235Z,47.37
2023-04-22T03:53:06.202Z,47.21
2023-04-22T03:54:06.200Z,47.37
2023-04-22T03:55:06.211Z,47.53
2023-04-22T03:56:06.200Z,48.18
2023-04-22T03:57:06.188Z,47.37
2023-04-22T03:58:06.188Z,47.53
2023-04-22T03:59:06.160Z,48.18
2023-04-22T04:00:06.146Z,47.86
2023-04-22T04:01:06.151Z,47.37
2023-04-22T04:02:06.218Z,48.02
2023-04-22T04:03:06.308Z,47.86
2023-04-22T04:04:06.333Z,47.53
2023-04-22T04:05:06.157Z,48.34
2023-04-22T04:06:06.144Z,47.53
2023-04-22T04:07:06.145Z,47.86
2023-04-22T04:08:06.096Z,47.86
2023-04-22T04:09:06.109Z,47.70
2023-04-22T04:10:06.100Z,47.37
2023-04-22T04:11:06.064Z,47.86
2023-04-22T04:12:07.101Z,48.02
2023-04-22T04:13:06.051Z,47.86
2023-04-22T04:14:06.056Z,47.21
2023-04-22T04:15:06.064Z,47.21
2023-04-22T04:16:06.088Z,47.21
2023-04-22T04:17:06.078Z,47.86
2023-04-22T04:18:06.070Z,47.21
2023-04-22T04:19:06.013Z,47.70
2023-04-22T04:20:06.018Z,47.53
2023-04-22T04:21:06.014Z,47.53
2023-04-22T04:22:06.030Z,47.21
2023-04-22T04:23:05.984Z,47.86
2023-04-22T04:24:05.984Z,47.37
2023-04-22T04:25:05.986Z,46.08
2023-04-22T04:26:05.969Z,45.92
2023-04-22T04:27:06.009Z,47.21
2023-04-22T04:28:05.955Z,47.21
2023-04-22T04:29:05.946Z,47.53
2023-04-22T04:30:05.975Z,49.31
2023-04-22T04:31:05.982Z,48.02
2023-04-22T04:32:05.958Z,47.53
2023-04-22T04:33:06.010Z,47.70
2023-04-22T04:34:05.918Z,47.70
2023-04-22T04:35:05.921Z,47.53
2023-04-22T04:36:05.898Z,48.02
2023-04-22T04:37:05.932Z,47.86
2023-04-22T04:38:05.898Z,47.86
2023-04-22T04:39:05.874Z,48.02
2023-04-22T04:40:05.877Z,47.70
2023-04-22T04:41:05.886Z,48.02
2023-04-22T04:42:05.875Z,47.21
2023-04-22T04:43:05.866Z,47.53
2023-04-22T04:44:05.851Z,48.02
2023-04-22T04:45:05.879Z,47.53
2023-04-22T04:46:05.969Z,47.70
2023-04-22T04:47:05.957Z,48.18
2023-04-22T04:48:05.879Z,48.02
2023-04-22T04:49:05.814Z,47.37
2023-04-22T04:50:05.810Z,47.86
2023-04-22T04:51:05.934Z,47.86
2023-04-22T04:52:05.936Z,47.53
2023-04-22T04:53:05.793Z,47.37
2023-04-22T04:54:05.786Z,47.86
2023-04-22T04:55:05.768Z,48.02
2023-04-22T04:56:06.724Z,47.21
2023-04-22T04:57:05.781Z,46.73
2023-04-22T04:58:05.766Z,46.89
2023-04-22T04:59:05.746Z,47.21
2023-04-22T05:00:05.738Z,47.37
2023-04-22T05:01:05.733Z,47.53
2023-04-22T05:02:05.823Z,47.21
2023-04-22T05:03:05.862Z,47.37
2023-04-22T05:04:05.828Z,47.53
2023-04-22T05:05:05.784Z,47.53
2023-04-22T05:06:05.707Z,47.70
2023-04-22T05:07:05.710Z,47.70
2023-04-22T05:08:05.685Z,47.53
2023-04-22T05:09:05.683Z,47.37
2023-04-22T05:10:05.677Z,47.37
2023-04-22T05:11:05.666Z,47.21
2023-04-22T05:12:05.678Z,47.53
2023-04-22T05:13:05.648Z,47.53
2023-04-22T05:14:05.647Z,47.86
2023-04-22T05:15:05.685Z,46.89
2023-04-22T05:16:05.763Z,47.37
2023-04-22T05:17:05.661Z,47.21
2023-04-22T05:18:05.747Z,46.89
2023-04-22T05:19:05.609Z,47.37
2023-04-22T05:20:05.596Z,47.53
2023-04-22T05:21:05.657Z,47.05
2023-04-22T05:22:05.619Z,46.89
2023-04-22T05:23:06.591Z,47.21
2023-04-22T05:24:05.568Z,46.89
2023-04-22T05:25:05.585Z,47.37
2023-04-22T05:26:05.562Z,47.05
2023-04-22T05:27:05.621Z,46.41
2023-04-22T05:28:05.551Z,46.73
2023-04-22T05:29:05.543Z,46.89
2023-04-22T05:30:05.535Z,47.37
2023-04-22T05:31:05.537Z,47.37
2023-04-22T05:32:05.575Z,47.21
2023-04-22T05:33:05.565Z,47.53
2023-04-22T05:34:05.514Z,46.57
2023-04-22T05:35:05.509Z,46.57
2023-04-22T05:36:05.552Z,45.92
2023-04-22T05:37:05.502Z,46.25
2023-04-22T05:38:05.500Z,46.25
2023-04-22T05:39:06.100Z,46.08
2023-04-22T05:40:05.467Z,46.41
2023-04-22T05:41:05.468Z,45.92
2023-04-22T05:42:05.492Z,46.41
2023-04-22T05:43:05.502Z,46.57
2023-04-22T05:44:05.444Z,46.08
2023-04-22T05:45:05.469Z,45.44
2023-04-22T05:46:05.554Z,45.92
2023-04-22T05:47:05.473Z,46.25
2023-04-22T05:48:05.461Z,45.60
2023-04-22T05:49:05.478Z,45.92
2023-04-22T05:50:05.412Z,46.41
2023-04-22T05:51:05.407Z,46.25
2023-04-22T05:52:05.408Z,45.92
2023-04-22T05:53:05.400Z,45.92
2023-04-22T05:54:05.390Z,45.76
2023-04-22T05:55:05.364Z,46.08
2023-04-22T05:56:05.385Z,45.92
2023-04-22T05:57:05.396Z,45.44
2023-04-22T05:58:05.344Z,45.44
2023-04-22T05:59:05.340Z,45.28
2023-04-22T06:00:05.414Z,45.76
2023-04-22T06:01:05.327Z,45.60
2023-04-22T06:02:05.535Z,45.92
2023-04-22T06:03:05.443Z,45.92
2023-04-22T06:04:05.694Z,45.92
2023-04-22T06:05:05.666Z,45.92
2023-04-22T06:06:05.317Z,45.92
2023-04-22T06:07:05.309Z,45.76
2023-04-22T06:08:05.284Z,45.60
2023-04-22T06:09:05.276Z,45.44
2023-04-22T06:10:05.714Z,45.44
2023-04-22T06:11:05.261Z,45.12
2023-04-22T06:12:05.279Z,45.76
2023-04-22T06:13:05.250Z,46.57
2023-04-22T06:14:05.252Z,45.28
2023-04-22T06:15:05.274Z,45.92
2023-04-22T06:16:05.472Z,44.63
2023-04-22T06:17:05.245Z,46.73
2023-04-22T06:18:05.244Z,45.76
2023-04-22T06:19:05.214Z,46.08
2023-04-22T06:20:05.212Z,46.08
2023-04-22T06:21:05.213Z,44.79
2023-04-22T06:22:05.184Z,46.08
2023-04-22T06:23:05.223Z,45.44
2023-04-22T06:24:05.163Z,45.44
2023-04-22T06:25:05.168Z,46.25
2023-04-22T06:26:05.174Z,46.25
2023-04-22T06:27:05.201Z,46.41
2023-04-22T06:28:05.150Z,45.92
2023-04-22T06:29:05.150Z,47.05
2023-04-22T06:30:05.129Z,46.57
2023-04-22T06:31:05.190Z,46.25
2023-04-22T06:32:05.141Z,46.57
2023-04-22T06:33:05.203Z,45.44
2023-04-22T06:34:05.102Z,45.44
2023-04-22T06:35:05.084Z,45.92
2023-04-22T06:36:05.077Z,45.92
2023-04-22T06:37:05.105Z,46.57
2023-04-22T06:38:05.109Z,46.41
2023-04-22T06:39:05.070Z,46.73
2023-04-22T06:40:05.112Z,45.76
2023-04-22T06:41:05.058Z,46.57
2023-04-22T06:42:05.062Z,45.60
2023-04-22T06:43:05.054Z,45.92
2023-04-22T06:44:05.049Z,46.57
2023-04-22T06:45:05.057Z,46.73
2023-04-22T06:46:05.021Z,46.25
2023-04-22T06:47:05.240Z,46.08
2023-04-22T06:48:05.008Z,45.92
2023-04-22T06:49:05.010Z,45.76
2023-04-22T06:50:04.999Z,45.12
2023-04-22T06:51:04.984Z,46.41
2023-04-22T06:52:05.008Z,45.76
2023-04-22T06:53:05.020Z,44.79
2023-04-22T06:54:04.984Z,45.12
2023-04-22T06:55:04.975Z,44.79
2023-04-22T06:56:04.963Z,45.12
2023-04-22T06:57:04.944Z,45.44
2023-04-22T06:58:04.993Z,44.96
2023-04-22T06:59:04.930Z,45.76
2023-04-22T07:00:04.924Z,45.12
2023-04-22T07:01:04.927Z,44.47
2023-04-22T07:02:05.028Z,44.79
2023-04-22T07:03:04.985Z,44.79
2023-04-22T07:04:04.937Z,44.63
2023-04-22T07:05:04.892Z,45.12
2023-04-22T07:06:04.879Z,45.12
2023-04-22T07:07:04.904Z,45.44
2023-04-22T07:08:04.864Z,45.28
2023-04-22T07:09:04.869Z,44.96
2023-04-22T07:10:04.908Z,44.96
2023-04-22T07:11:04.870Z,44.15
2023-04-22T07:12:04.878Z,45.28
2023-04-22T07:13:04.832Z,45.60
2023-04-22T07:14:04.903Z,45.44
2023-04-22T07:15:04.822Z,45.44
2023-04-22T07:16:04.833Z,45.44
2023-04-22T07:17:04.873Z,45.44
2023-04-22T07:18:04.810Z,44.96
2023-04-22T07:19:04.807Z,44.96
2023-04-22T07:20:04.789Z,44.96
2023-04-22T07:21:04.772Z,44.63
2023-04-22T07:22:04.788Z,45.28
2023-04-22T07:23:04.765Z,45.76
2023-04-22T07:24:04.768Z,45.60
2023-04-22T07:25:04.747Z,44.63
2023-04-22T07:26:04.749Z,45.76
2023-04-22T07:27:04.750Z,44.79
2023-04-22T07:28:04.735Z,45.12
2023-04-22T07:29:04.721Z,44.47
2023-04-22T07:30:04.732Z,44.96
2023-04-22T07:31:04.727Z,45.12
2023-04-22T07:32:04.746Z,44.79
2023-04-22T07:33:04.745Z,45.12
2023-04-22T07:34:04.678Z,44.79
2023-04-22T07:35:04.676Z,44.15
2023-04-22T07:36:04.678Z,44.47
2023-04-22T07:37:04.734Z,44.15
2023-04-22T07:38:04.661Z,43.83
2023-04-22T07:39:04.664Z,43.99
2023-04-22T07:40:04.644Z,43.99
2023-04-22T07:41:04.638Z,43.67
2023-04-22T07:42:04.644Z,44.15
2023-04-22T07:43:04.624Z,43.67
2023-04-22T07:44:04.624Z,43.02
2023-04-22T07:45:04.607Z,41.73
2023-04-22T07:46:04.685Z,41.89
2023-04-22T07:47:04.656Z,41.89
2023-04-22T07:48:04.618Z,42.22
2023-04-22T07:49:04.567Z,41.57
2023-04-22T07:50:04.569Z,42.22
2023-04-22T07:51:04.561Z,41.09
2023-04-22T07:52:04.560Z,40.77
2023-04-22T07:53:04.550Z,41.73
2023-04-22T07:54:04.534Z,42.38
2023-04-22T07:55:04.532Z,41.57
2023-04-22T07:56:04.526Z,40.77
2023-04-22T07:57:04.597Z,38.67
2023-04-22T07:58:04.525Z,40.12
2023-04-22T07:59:04.509Z,39.64
2023-04-22T08:00:04.502Z,41.73
2023-04-22T08:01:04.565Z,40.61
2023-04-22T08:02:04.598Z,41.41
2023-04-22T08:03:04.581Z,40.93
2023-04-22T08:04:04.679Z,40.12
2023-04-22T08:05:04.528Z,43.99
2023-04-22T08:06:04.459Z,41.57
2023-04-22T08:07:17.128Z,40.93
2023-04-22T08:08:06.471Z,42.06
2023-04-22T08:09:04.443Z,43.51
2023-04-22T08:10:04.423Z,41.73
2023-04-22T08:11:04.438Z,40.93
2023-04-22T08:12:04.427Z,41.89
2023-04-22T08:13:04.429Z,43.51
2023-04-22T08:14:04.414Z,41.25
2023-04-22T08:15:04.404Z,42.38
2023-04-22T08:16:04.445Z,41.73
2023-04-22T08:17:04.413Z,42.54
2023-04-22T08:18:04.412Z,41.09
2023-04-22T08:19:04.371Z,40.44
2023-04-22T08:20:06.546Z,40.44
2023-04-22T08:21:04.363Z,41.89
2023-04-22T08:22:04.363Z,42.70
2023-04-22T08:23:04.355Z,42.06
2023-04-22T08:24:04.339Z,44.79
2023-04-22T08:25:04.333Z,43.99
2023-04-22T08:26:04.321Z,43.02
2023-04-22T08:27:04.378Z,43.02
2023-04-22T08:28:04.323Z,43.02
2023-04-22T08:29:04.309Z,42.06
2023-04-22T08:30:04.301Z,43.67
2023-04-22T08:31:04.380Z,43.83
2023-04-22T08:32:04.282Z,41.25
2023-04-22T08:33:04.305Z,42.54
2023-04-22T08:34:04.267Z,41.09
2023-04-22T08:35:05.517Z,41.09
2023-04-22T08:36:05.261Z,41.41
2023-04-22T08:37:04.311Z,41.89
2023-04-22T08:38:04.267Z,40.61
2023-04-22T08:39:04.236Z,41.57
2023-04-22T08:40:04.230Z,41.25
2023-04-22T08:41:04.224Z,40.12
2023-04-22T08:42:04.214Z,40.12
2023-04-22T08:43:04.215Z,43.34
2023-04-22T08:44:04.192Z,41.41
2023-04-22T08:45:04.196Z,40.93
2023-04-22T08:46:04.179Z,40.12
2023-04-22T08:47:04.331Z,40.93
2023-04-22T08:48:04.171Z,42.86
2023-04-22T08:49:04.159Z,43.02
2023-04-22T08:50:04.170Z,43.18
2023-04-22T08:51:04.152Z,41.57
2023-04-22T08:52:04.165Z,42.54
2023-04-22T08:53:04.136Z,41.89
2023-04-22T08:54:04.148Z,42.54
2023-04-22T08:55:04.156Z,42.86
2023-04-22T08:56:04.133Z,43.02
2023-04-22T08:57:04.125Z,42.06
2023-04-22T08:58:04.126Z,41.25
2023-04-22T08:59:04.099Z,42.06
2023-04-22T09:00:04.105Z,41.25
2023-04-22T09:01:04.115Z,40.93
2023-04-22T09:02:04.251Z,44.47
2023-04-22T09:03:04.156Z,41.25
2023-04-22T09:04:04.156Z,40.77
2023-04-22T09:05:04.071Z,43.99
2023-04-22T09:06:04.043Z,42.38
2023-04-22T09:07:04.048Z,41.41
2023-04-22T09:08:04.034Z,40.61
2023-04-22T09:09:04.023Z,39.64
2023-04-22T09:10:04.028Z,40.44
2023-04-22T09:11:04.007Z,41.57
2023-04-22T09:12:04.013Z,39.64
2023-04-22T09:13:03.990Z,42.54
2023-04-22T09:14:03.992Z,43.34
2023-04-22T09:15:03.978Z,42.22
2023-04-22T09:16:04.029Z,41.73
2023-04-22T09:17:03.992Z,43.51
2023-04-22T09:18:04.012Z,42.38
2023-04-22T09:19:03.949Z,42.70
2023-04-22T09:20:03.953Z,40.28
2023-04-22T09:21:03.940Z,38.99
2023-04-22T09:22:03.969Z,43.99
2023-04-22T09:23:03.922Z,43.67
2023-04-22T09:24:07.150Z,43.51
2023-04-22T09:25:03.907Z,40.77
2023-04-22T09:26:03.889Z,42.22
2023-04-22T09:27:03.906Z,43.83
2023-04-22T09:28:03.878Z,40.28
2023-04-22T09:29:03.880Z,40.44
2023-04-22T09:30:03.856Z,41.09
2023-04-22T09:31:04.850Z,40.44
2023-04-22T09:32:03.930Z,41.73
2023-04-22T09:33:03.880Z,41.41
2023-04-22T09:34:03.835Z,43.18
2023-04-22T09:35:03.841Z,42.54
2023-04-22T09:36:03.830Z,42.86
2023-04-22T09:37:03.871Z,42.86
2023-04-22T09:38:03.838Z,41.89
2023-04-22T09:39:03.806Z,40.77
2023-04-22T09:40:03.808Z,41.25
2023-04-22T09:41:03.798Z,41.73
2023-04-22T09:42:03.808Z,41.57
2023-04-22T09:43:03.818Z,42.86
2023-04-22T09:44:03.774Z,43.83
2023-04-22T09:45:03.762Z,42.86
2023-04-22T09:46:03.788Z,40.93
2023-04-22T09:47:03.772Z,40.77
2023-04-22T09:48:03.843Z,42.70
2023-04-22T09:49:03.749Z,42.06
2023-04-22T09:50:03.741Z,43.51
2023-04-22T09:51:03.731Z,43.02
2023-04-22T09:52:03.757Z,44.47
2023-04-22T09:53:03.717Z,43.18
2023-04-22T09:54:03.704Z,42.54
2023-04-22T09:55:03.690Z,43.34
2023-04-22T09:56:03.695Z,42.70
2023-04-22T09:57:03.685Z,40.44
2023-04-22T09:58:03.700Z,42.06
2023-04-22T09:59:03.668Z,41.25
2023-04-22T10:00:03.666Z,42.06
2023-04-22T10:01:03.709Z,43.18
2023-04-22T10:02:03.693Z,44.47
2023-04-22T10:03:03.749Z,40.77
2023-04-22T10:04:03.678Z,43.18
2023-04-22T10:05:03.634Z,43.67
2023-04-22T10:06:03.623Z,40.28
2023-04-22T10:07:03.612Z,42.54
2023-04-22T10:08:03.900Z,43.02
2023-04-22T10:09:03.599Z,41.73
2023-04-22T10:10:03.601Z,42.54
2023-04-22T10:11:03.581Z,41.73
2023-04-22T10:12:03.598Z,42.70
2023-04-22T10:13:03.594Z,41.09
2023-04-22T10:14:03.566Z,41.89
2023-04-22T10:15:03.602Z,40.28
2023-04-22T10:16:03.558Z,40.93
2023-04-22T10:17:03.623Z,39.80
2023-04-22T10:18:03.648Z,41.25
2023-04-22T10:19:03.531Z,40.44
2023-04-22T10:20:03.525Z,41.73
2023-04-22T10:21:03.513Z,44.15
2023-04-22T10:22:03.505Z,46.57
2023-04-22T10:23:03.518Z,42.86
2023-04-22T10:24:03.488Z,41.89
2023-04-22T10:25:03.502Z,41.41
2023-04-22T10:26:03.475Z,45.92
2023-04-22T10:27:03.479Z,47.21
2023-04-22T10:28:03.479Z,46.08
2023-04-22T10:29:03.463Z,44.47
2023-04-22T10:30:03.455Z,42.54
2023-04-22T10:31:03.444Z,43.99
2023-04-22T10:32:03.431Z,41.89
2023-04-22T10:33:03.450Z,42.70
2023-04-22T10:34:03.425Z,42.38
2023-04-22T10:35:03.419Z,40.77
2023-04-22T10:36:03.405Z,43.18
2023-04-22T10:37:03.399Z,41.25
2023-04-22T10:38:03.411Z,39.80
2023-04-22T10:39:03.430Z,41.57
2023-04-22T10:40:03.392Z,40.61
2023-04-22T10:41:03.401Z,42.54
2023-04-22T10:42:03.348Z,39.64
2023-04-22T10:43:03.407Z,39.64
2023-04-22T10:44:03.348Z,38.67
2023-04-22T10:45:03.342Z,38.19
2023-04-22T10:46:03.348Z,38.83
2023-04-22T10:47:03.326Z,40.77
2023-04-22T10:48:03.376Z,40.61
2023-04-22T10:49:04.616Z,38.19
2023-04-22T10:50:03.325Z,36.42
2023-04-22T10:51:03.302Z,37.54
2023-04-22T10:52:03.297Z,37.38
2023-04-22T10:53:03.311Z,35.93
2023-04-22T10:54:03.278Z,35.93
2023-04-22T10:55:03.351Z,37.22
2023-04-22T10:56:03.288Z,38.67
2023-04-22T10:57:03.323Z,37.71
2023-04-22T10:58:03.281Z,39.64
2023-04-22T10:59:03.250Z,35.93
2023-04-22T11:00:03.250Z,38.99
2023-04-22T11:01:03.247Z,39.64
2023-04-22T11:02:03.273Z,39.64
2023-04-22T11:03:03.409Z,39.32
2023-04-22T11:04:03.343Z,38.99
2023-04-22T11:05:03.211Z,39.80
2023-04-22T11:06:03.205Z,39.96
2023-04-22T11:07:03.185Z,41.41
2023-04-22T11:08:03.212Z,40.28
2023-04-22T11:09:03.182Z,39.16
2023-04-22T11:10:03.337Z,40.12
2023-04-22T11:11:03.153Z,39.16
2023-04-22T11:12:03.160Z,38.19
2023-04-22T11:13:03.173Z,37.54
2023-04-22T11:14:03.150Z,39.96
2023-04-22T11:15:03.153Z,39.16
2023-04-22T11:16:03.861Z,37.54
2023-04-22T11:17:03.767Z,38.83
2023-04-22T11:18:03.133Z,44.96
2023-04-22T11:19:03.102Z,44.96
2023-04-22T11:20:03.100Z,44.79
2023-04-22T11:21:03.093Z,39.16
2023-04-22T11:22:03.079Z,37.22
2023-04-22T11:23:03.124Z,39.32
2023-04-22T11:24:03.090Z,38.67
2023-04-22T11:25:03.071Z,38.19
2023-04-22T11:26:03.064Z,43.67
2023-04-22T11:27:03.052Z,39.48
2023-04-22T11:28:03.072Z,41.73
2023-04-22T11:29:03.039Z,38.35
2023-04-22T11:30:03.062Z,40.28
2023-04-22T11:31:03.058Z,40.44
2023-04-22T11:32:03.080Z,41.41
2023-04-22T11:33:03.093Z,41.41
2023-04-22T11:34:03.014Z,42.86
2023-04-22T11:35:03.012Z,40.28
2023-04-22T11:36:03.012Z,38.83
2023-04-22T11:37:02.983Z,39.64
2023-04-22T11:38:03.015Z,40.93
2023-04-22T11:39:02.980Z,41.73
2023-04-22T11:40:21.604Z,41.89
2023-04-22T11:41:04.988Z,41.25
2023-04-22T11:42:02.948Z,43.02
2023-04-22T11:43:02.962Z,40.28
2023-04-22T11:44:02.934Z,42.54
2023-04-22T11:45:02.945Z,40.93
2023-04-22T11:46:02.936Z,38.67
2023-04-22T11:47:02.912Z,40.12
2023-04-22T11:48:02.957Z,40.12
2023-04-22T11:49:02.906Z,40.77
2023-04-22T11:50:02.904Z,41.57
2023-04-22T11:51:02.891Z,41.73
2023-04-22T11:52:02.875Z,38.51
2023-04-22T11:53:02.891Z,36.58
2023-04-22T11:54:02.859Z,40.93
2023-04-22T11:55:02.852Z,37.54
2023-04-22T11:56:02.865Z,38.19
2023-04-22T11:57:02.861Z,40.44
2023-04-22T11:58:02.856Z,40.93
2023-04-22T11:59:02.837Z,36.90
2023-04-22T12:00:02.830Z,38.83
2023-04-22T12:01:02.817Z,39.80
2023-04-22T12:02:02.891Z,35.61
2023-04-22T12:03:02.957Z,36.74
2023-04-22T12:04:02.987Z,37.22
2023-04-22T12:05:02.804Z,38.83
2023-04-22T12:06:02.776Z,39.16
2023-04-22T12:07:02.765Z,37.87
2023-04-22T12:08:02.861Z,36.25
2023-04-22T12:09:02.766Z,39.64
2023-04-22T12:10:02.755Z,39.64
2023-04-22T12:11:02.742Z,38.83
2023-04-22T12:12:02.740Z,38.51
2023-04-22T12:13:02.752Z,39.64
2023-04-22T12:14:02.734Z,37.22
2023-04-22T12:15:02.734Z,37.22
2023-04-22T12:16:02.703Z,39.96
2023-04-22T12:17:02.754Z,41.89
2023-04-22T12:18:02.714Z,39.64
2023-04-22T12:19:02.701Z,37.38
2023-04-22T12:20:02.778Z,42.86
2023-04-22T12:21:02.678Z,41.73
2023-04-22T12:22:02.672Z,38.35
2023-04-22T12:23:02.683Z,40.28
2023-04-22T12:24:02.650Z,40.12
2023-04-22T12:25:02.635Z,42.70
2023-04-22T12:26:02.644Z,38.99
2023-04-22T12:27:02.631Z,38.83
2023-04-22T12:28:02.654Z,38.83
2023-04-22T12:29:02.629Z,38.83
2023-04-22T12:30:02.613Z,35.77
2023-04-22T12:31:02.633Z,40.77
2023-04-22T12:32:02.626Z,39.64
2023-04-22T12:33:02.617Z,40.77
2023-04-22T12:34:02.622Z,40.44
2023-04-22T12:35:02.602Z,39.80
2023-04-22T12:36:02.576Z,38.03
2023-04-22T12:37:02.578Z,39.48
2023-04-22T12:38:02.596Z,35.93
2023-04-22T12:39:02.555Z,38.35
2023-04-22T12:40:02.564Z,38.83
2023-04-22T12:41:02.536Z,40.77
2023-04-22T12:42:02.529Z,37.54
2023-04-22T12:43:02.544Z,36.42
2023-04-22T12:44:02.511Z,38.83
2023-04-22T12:45:02.512Z,38.03
2023-04-22T12:46:02.578Z,39.64
2023-04-22T12:47:02.502Z,38.99
2023-04-22T12:48:02.555Z,42.54
2023-04-22T12:49:02.482Z,42.38
2023-04-22T12:50:02.477Z,36.58
2023-04-22T12:51:02.465Z,36.09
2023-04-22T12:52:02.454Z,37.22